sensor_id;sensor_type;location;lat;lon;timestamp;temperature;humidity
28520;DHT22;15732;48.534;20.382;2024-01-30T00:00:08;-0.80;99.90
28520;DHT22;15732;48.534;20.382;2024-01-30T00:02:37;-0.80;99.90
28520;DHT22;15732;48.534;20.382;2024-01-30T00:05:04;-0.80;99.90
28520;DHT22;15732;48.534;20.382;2024-01-30T00:07:32;-0.80;99.90
28520;DHT22;15732;48.534;20.382;2024-01-30T00:09:59;-0.80;99.90
28520;DHT22;15732;48.534;20.382;2024-01-30T00:12:26;-0.90;99.90
28520;DHT22;15732;48.534;20.382;2024-01-30T00:14:53;-0.90;99.90
28520;DHT22;15732;48.534;20.382;2024-01-30T00:17:21;-0.90;99.90
28520;DHT22;15732;48.534;20.382;2024-01-30T00:19:48;-0.90;99.90
28520;DHT22;15732;48.534;20.382;2024-01-30T00:22:19;-0.90;99.90
28520;DHT22;15732;48.534;20.382;2024-01-30T00:24:50;-0.90;99.90
28520;DHT22;15732;48.534;20.382;2024-01-30T00:27:17;-1.00;99.90
28520;DHT22;15732;48.534;20.382;2024-01-30T00:29:48;-1.00;99.90
28520;DHT22;15732;48.534;20.382;2024-01-30T00:32:19;-1.10;99.90
28520;DHT22;15732;48.534;20.382;2024-01-30T00:34:46;-1.00;99.90
28520;DHT22;15732;48.534;20.382;2024-01-30T00:37:14;-1.10;99.90
28520;DHT22;15732;48.534;20.382;2024-01-30T00:39:41;-1.20;99.90
28520;DHT22;15732;48.534;20.382;2024-01-30T00:42:08;-1.20;99.90
28520;DHT22;15732;48.534;20.382;2024-01-30T00:44:36;-1.30;99.90
28520;DHT22;15732;48.534;20.382;2024-01-30T00:47:06;-1.30;99.90
28520;DHT22;15732;48.534;20.382;2024-01-30T00:49:37;-1.40;99.90
28520;DHT22;15732;48.534;20.382;2024-01-30T00:52:08;-1.40;99.90
28520;DHT22;15732;48.534;20.382;2024-01-30T00:54:39;-1.40;99.90
28520;DHT22;15732;48.534;20.382;2024-01-30T00:57:07;-1.40;99.90
28520;DHT22;15732;48.534;20.382;2024-01-30T00:59:37;-1.40;99.90
28520;DHT22;15732;48.534;20.382;2024-01-30T01:02:09;-1.30;99.90
28520;DHT22;15732;48.534;20.382;2024-01-30T01:04:40;-1.40;99.90
28520;DHT22;15732;48.534;20.382;2024-01-30T01:07:07;-1.40;99.90
28520;DHT22;15732;48.534;20.382;2024-01-30T01:09:38;-1.50;99.90
28520;DHT22;15732;48.534;20.382;2024-01-30T01:12:06;-1.50;99.90
28520;DHT22;15732;48.534;20.382;2024-01-30T01:14:37;-1.60;99.90
28520;DHT22;15732;48.534;20.382;2024-01-30T01:17:04;-1.60;99.90
28520;DHT22;15732;48.534;20.382;2024-01-30T01:19:31;-1.60;99.90
28520;DHT22;15732;48.534;20.382;2024-01-30T01:22:03;-1.60;99.90
28520;DHT22;15732;48.534;20.382;2024-01-30T01:24:35;-1.50;99.90
28520;DHT22;15732;48.534;20.382;2024-01-30T01:27:02;-1.50;99.90
28520;DHT22;15732;48.534;20.382;2024-01-30T01:29:30;-1.50;99.90
28520;DHT22;15732;48.534;20.382;2024-01-30T01:31:57;-1.50;99.90
28520;DHT22;15732;48.534;20.382;2024-01-30T01:34:24;-1.40;99.90
28520;DHT22;15732;48.534;20.382;2024-01-30T01:36:55;-1.40;99.90
28520;DHT22;15732;48.534;20.382;2024-01-30T01:39:23;-1.40;99.90
28520;DHT22;15732;48.534;20.382;2024-01-30T01:41:54;-1.30;99.90
28520;DHT22;15732;48.534;20.382;2024-01-30T01:44:20;-1.30;99.90
28520;DHT22;15732;48.534;20.382;2024-01-30T01:46:48;-1.20;99.90
28520;DHT22;15732;48.534;20.382;2024-01-30T01:49:15;-1.20;99.90
28520;DHT22;15732;48.534;20.382;2024-01-30T01:51:43;-1.10;99.90
28520;DHT22;15732;48.534;20.382;2024-01-30T01:54:11;-1.00;99.90
28520;DHT22;15732;48.534;20.382;2024-01-30T01:56:38;-1.00;99.90
28520;DHT22;15732;48.534;20.382;2024-01-30T01:59:07;-0.90;99.90
28520;DHT22;15732;48.534;20.382;2024-01-30T02:01:36;-0.90;99.90
28520;DHT22;15732;48.534;20.382;2024-01-30T02:04:10;-0.90;99.90
28520;DHT22;15732;48.534;20.382;2024-01-30T02:06:37;-0.90;99.90
28520;DHT22;15732;48.534;20.382;2024-01-30T02:09:05;-1.00;99.90
28520;DHT22;15732;48.534;20.382;2024-01-30T02:11:32;-1.10;99.90
28520;DHT22;15732;48.534;20.382;2024-01-30T02:14:03;-1.20;99.90
28520;DHT22;15732;48.534;20.382;2024-01-30T02:16:31;-1.50;99.90
28520;DHT22;15732;48.534;20.382;2024-01-30T02:18:58;-1.40;99.90
28520;DHT22;15732;48.534;20.382;2024-01-30T02:21:28;-1.50;99.90
28520;DHT22;15732;48.534;20.382;2024-01-30T02:24:00;-1.60;99.90
28520;DHT22;15732;48.534;20.382;2024-01-30T02:26:28;-1.70;99.90
28520;DHT22;15732;48.534;20.382;2024-01-30T02:28:55;-1.80;99.90
28520;DHT22;15732;48.534;20.382;2024-01-30T02:31:24;-1.80;99.90
28520;DHT22;15732;48.534;20.382;2024-01-30T02:33:51;-1.90;99.90
28520;DHT22;15732;48.534;20.382;2024-01-30T02:36:18;-1.90;99.90
28520;DHT22;15732;48.534;20.382;2024-01-30T02:38:49;-1.90;99.90
28520;DHT22;15732;48.534;20.382;2024-01-30T02:41:20;-1.80;99.90
28520;DHT22;15732;48.534;20.382;2024-01-30T02:43:48;-1.80;99.90
28520;DHT22;15732;48.534;20.382;2024-01-30T02:46:15;-1.80;99.90
28520;DHT22;15732;48.534;20.382;2024-01-30T02:48:42;-1.80;99.90
28520;DHT22;15732;48.534;20.382;2024-01-30T02:51:10;-1.80;99.90
28520;DHT22;15732;48.534;20.382;2024-01-30T02:53:36;-1.80;99.90
28520;DHT22;15732;48.534;20.382;2024-01-30T02:56:03;-1.80;99.90
28520;DHT22;15732;48.534;20.382;2024-01-30T02:58:31;-1.70;99.90
28520;DHT22;15732;48.534;20.382;2024-01-30T03:00:59;-1.80;99.90
28520;DHT22;15732;48.534;20.382;2024-01-30T03:03:26;-1.90;99.90
28520;DHT22;15732;48.534;20.382;2024-01-30T03:05:53;-2.00;99.90
28520;DHT22;15732;48.534;20.382;2024-01-30T03:08:24;-2.00;99.90
28520;DHT22;15732;48.534;20.382;2024-01-30T03:10:51;-1.90;99.90
28520;DHT22;15732;48.534;20.382;2024-01-30T03:13:18;-1.90;99.90
28520;DHT22;15732;48.534;20.382;2024-01-30T03:15:49;-1.90;99.90
28520;DHT22;15732;48.534;20.382;2024-01-30T03:18:16;-1.90;99.90
28520;DHT22;15732;48.534;20.382;2024-01-30T03:20:44;-1.90;99.90
28520;DHT22;15732;48.534;20.382;2024-01-30T03:23:15;-1.90;99.90
28520;DHT22;15732;48.534;20.382;2024-01-30T03:25:43;-2.00;99.90
28520;DHT22;15732;48.534;20.382;2024-01-30T03:28:10;-2.00;99.90
28520;DHT22;15732;48.534;20.382;2024-01-30T03:30:37;-2.00;99.90
28520;DHT22;15732;48.534;20.382;2024-01-30T03:33:08;-2.00;99.90
28520;DHT22;15732;48.534;20.382;2024-01-30T03:35:40;-2.20;99.90
28520;DHT22;15732;48.534;20.382;2024-01-30T03:38:11;-2.20;99.90
28520;DHT22;15732;48.534;20.382;2024-01-30T03:40:42;-2.20;99.90
28520;DHT22;15732;48.534;20.382;2024-01-30T03:43:10;-2.30;99.90
28520;DHT22;15732;48.534;20.382;2024-01-30T03:45:36;-2.40;99.90
28520;DHT22;15732;48.534;20.382;2024-01-30T03:48:05;-2.40;99.90
28520;DHT22;15732;48.534;20.382;2024-01-30T03:50:37;-2.40;99.90
28520;DHT22;15732;48.534;20.382;2024-01-30T03:53:05;-2.50;99.90
28520;DHT22;15732;48.534;20.382;2024-01-30T03:55:36;-2.50;99.90
28520;DHT22;15732;48.534;20.382;2024-01-30T03:58:07;-2.50;99.90
28520;DHT22;15732;48.534;20.382;2024-01-30T04:00:34;-2.50;99.90
28520;DHT22;15732;48.534;20.382;2024-01-30T04:03:05;-2.40;99.90
28520;DHT22;15732;48.534;20.382;2024-01-30T04:05:36;-2.40;99.90
28520;DHT22;15732;48.534;20.382;2024-01-30T04:08:07;-2.40;99.90
28520;DHT22;15732;48.534;20.382;2024-01-30T04:10:38;-2.30;99.90
28520;DHT22;15732;48.534;20.382;2024-01-30T04:13:09;-2.30;99.90
28520;DHT22;15732;48.534;20.382;2024-01-30T04:15:36;-2.30;99.90
28520;DHT22;15732;48.534;20.382;2024-01-30T04:18:04;-2.30;99.90
28520;DHT22;15732;48.534;20.382;2024-01-30T04:20:31;-2.20;99.90
28520;DHT22;15732;48.534;20.382;2024-01-30T04:22:58;-2.20;99.90
28520;DHT22;15732;48.534;20.382;2024-01-30T04:25:25;-2.10;99.90
28520;DHT22;15732;48.534;20.382;2024-01-30T04:27:52;-2.10;99.90
28520;DHT22;15732;48.534;20.382;2024-01-30T04:30:19;-2.10;99.90
28520;DHT22;15732;48.534;20.382;2024-01-30T04:32:47;-2.20;99.90
28520;DHT22;15732;48.534;20.382;2024-01-30T04:35:14;-2.10;99.90
28520;DHT22;15732;48.534;20.382;2024-01-30T04:37:41;-2.20;99.90
28520;DHT22;15732;48.534;20.382;2024-01-30T04:40:09;-2.20;99.90
28520;DHT22;15732;48.534;20.382;2024-01-30T04:42:37;-2.20;99.90
28520;DHT22;15732;48.534;20.382;2024-01-30T04:45:09;-2.20;99.90
28520;DHT22;15732;48.534;20.382;2024-01-30T04:47:36;-2.30;99.90
28520;DHT22;15732;48.534;20.382;2024-01-30T04:50:03;-2.40;99.90
28520;DHT22;15732;48.534;20.382;2024-01-30T04:52:31;-2.50;99.90
28520;DHT22;15732;48.534;20.382;2024-01-30T04:54:58;-2.50;99.90
28520;DHT22;15732;48.534;20.382;2024-01-30T04:57:26;-2.50;99.90
28520;DHT22;15732;48.534;20.382;2024-01-30T04:59:54;-2.50;99.90
28520;DHT22;15732;48.534;20.382;2024-01-30T05:02:25;-2.50;99.90
28520;DHT22;15732;48.534;20.382;2024-01-30T05:04:56;-2.60;99.90
28520;DHT22;15732;48.534;20.382;2024-01-30T05:07:27;-2.70;99.90
28520;DHT22;15732;48.534;20.382;2024-01-30T05:09:59;-2.70;99.90
28520;DHT22;15732;48.534;20.382;2024-01-30T05:12:30;-2.70;99.90
28520;DHT22;15732;48.534;20.382;2024-01-30T05:14:57;-2.70;99.90
28520;DHT22;15732;48.534;20.382;2024-01-30T05:17:25;-2.70;99.90
28520;DHT22;15732;48.534;20.382;2024-01-30T05:19:55;-2.70;99.90
28520;DHT22;15732;48.534;20.382;2024-01-30T05:22:26;-2.60;99.90
28520;DHT22;15732;48.534;20.382;2024-01-30T05:24:57;-2.60;99.90
28520;DHT22;15732;48.534;20.382;2024-01-30T05:27:28;-2.60;99.90
28520;DHT22;15732;48.534;20.382;2024-01-30T05:29:55;-2.60;99.90
28520;DHT22;15732;48.534;20.382;2024-01-30T05:32:27;-2.50;99.90
28520;DHT22;15732;48.534;20.382;2024-01-30T05:34:58;-2.50;99.90
28520;DHT22;15732;48.534;20.382;2024-01-30T05:37:29;-2.40;99.90
28520;DHT22;15732;48.534;20.382;2024-01-30T05:40:00;-2.30;99.90
28520;DHT22;15732;48.534;20.382;2024-01-30T05:42:32;-2.40;99.90
28520;DHT22;15732;48.534;20.382;2024-01-30T05:45:03;-2.40;99.90
28520;DHT22;15732;48.534;20.382;2024-01-30T05:47:32;-2.60;99.90
28520;DHT22;15732;48.534;20.382;2024-01-30T05:49:59;-2.60;99.90
28520;DHT22;15732;48.534;20.382;2024-01-30T05:52:26;-2.50;99.90
28520;DHT22;15732;48.534;20.382;2024-01-30T05:54:57;-2.50;99.90
28520;DHT22;15732;48.534;20.382;2024-01-30T05:57:24;-2.40;99.90
28520;DHT22;15732;48.534;20.382;2024-01-30T05:59:55;-2.30;99.90
28520;DHT22;15732;48.534;20.382;2024-01-30T06:02:23;-2.30;99.90
28520;DHT22;15732;48.534;20.382;2024-01-30T06:04:54;-2.30;99.90
28520;DHT22;15732;48.534;20.382;2024-01-30T06:07:25;-2.30;99.90
28520;DHT22;15732;48.534;20.382;2024-01-30T06:09:57;-2.30;99.90
28520;DHT22;15732;48.534;20.382;2024-01-30T06:12:29;-2.40;99.90
28520;DHT22;15732;48.534;20.382;2024-01-30T06:15:01;-2.40;99.90
28520;DHT22;15732;48.534;20.382;2024-01-30T06:17:28;-2.40;99.90
28520;DHT22;15732;48.534;20.382;2024-01-30T06:20:00;-2.40;99.90
28520;DHT22;15732;48.534;20.382;2024-01-30T06:22:27;-2.40;99.90
28520;DHT22;15732;48.534;20.382;2024-01-30T06:24:54;-2.40;99.90
28520;DHT22;15732;48.534;20.382;2024-01-30T06:27:21;-2.40;99.90
28520;DHT22;15732;48.534;20.382;2024-01-30T06:29:52;-2.40;99.90
28520;DHT22;15732;48.534;20.382;2024-01-30T06:32:20;-2.30;99.90
28520;DHT22;15732;48.534;20.382;2024-01-30T06:34:47;-2.40;99.90
28520;DHT22;15732;48.534;20.382;2024-01-30T06:37:18;-2.30;99.90
28520;DHT22;15732;48.534;20.382;2024-01-30T06:39:46;-2.20;99.90
28520;DHT22;15732;48.534;20.382;2024-01-30T06:42:17;-2.20;99.90
28520;DHT22;15732;48.534;20.382;2024-01-30T06:44:44;-2.20;99.90
28520;DHT22;15732;48.534;20.382;2024-01-30T06:47:11;-2.20;99.90
28520;DHT22;15732;48.534;20.382;2024-01-30T06:49:38;-2.10;99.90
28520;DHT22;15732;48.534;20.382;2024-01-30T06:52:11;-2.10;99.90
28520;DHT22;15732;48.534;20.382;2024-01-30T06:54:38;-2.10;99.90
28520;DHT22;15732;48.534;20.382;2024-01-30T06:57:09;-2.00;99.90
28520;DHT22;15732;48.534;20.382;2024-01-30T06:59:38;-1.90;99.90
28520;DHT22;15732;48.534;20.382;2024-01-30T07:02:10;-1.80;99.90
28520;DHT22;15732;48.534;20.382;2024-01-30T07:04:41;-1.80;99.90
28520;DHT22;15732;48.534;20.382;2024-01-30T07:07:12;-1.80;99.90
28520;DHT22;15732;48.534;20.382;2024-01-30T07:09:43;-1.70;99.90
28520;DHT22;15732;48.534;20.382;2024-01-30T07:12:11;-1.70;99.90
28520;DHT22;15732;48.534;20.382;2024-01-30T07:14:38;-1.60;99.90
28520;DHT22;15732;48.534;20.382;2024-01-30T07:17:09;-1.60;99.90
28520;DHT22;15732;48.534;20.382;2024-01-30T07:19:40;-1.50;99.90
28520;DHT22;15732;48.534;20.382;2024-01-30T07:22:11;-1.50;99.90
28520;DHT22;15732;48.534;20.382;2024-01-30T07:24:45;-1.50;99.90
28520;DHT22;15732;48.534;20.382;2024-01-30T07:27:18;-1.50;99.90
28520;DHT22;15732;48.534;20.382;2024-01-30T07:29:45;-1.50;99.90
28520;DHT22;15732;48.534;20.382;2024-01-30T07:32:13;-1.50;99.90
28520;DHT22;15732;48.534;20.382;2024-01-30T07:34:40;-1.60;99.90
28520;DHT22;15732;48.534;20.382;2024-01-30T07:37:07;-1.50;99.90
28520;DHT22;15732;48.534;20.382;2024-01-30T07:39:35;-1.60;99.90
28520;DHT22;15732;48.534;20.382;2024-01-30T07:42:04;-1.60;99.90
28520;DHT22;15732;48.534;20.382;2024-01-30T07:44:32;-1.60;99.90
28520;DHT22;15732;48.534;20.382;2024-01-30T07:47:04;-1.60;99.90
28520;DHT22;15732;48.534;20.382;2024-01-30T07:49:31;-1.60;99.90
28520;DHT22;15732;48.534;20.382;2024-01-30T07:51:59;-1.60;99.90
28520;DHT22;15732;48.534;20.382;2024-01-30T07:54:26;-1.50;99.90
28520;DHT22;15732;48.534;20.382;2024-01-30T07:56:53;-1.40;99.90
28520;DHT22;15732;48.534;20.382;2024-01-30T07:59:21;-1.40;99.90
28520;DHT22;15732;48.534;20.382;2024-01-30T08:01:54;-1.30;99.90
28520;DHT22;15732;48.534;20.382;2024-01-30T08:04:21;-1.20;99.90
28520;DHT22;15732;48.534;20.382;2024-01-30T08:06:52;-1.20;99.90
28520;DHT22;15732;48.534;20.382;2024-01-30T08:09:19;-1.20;99.90
28520;DHT22;15732;48.534;20.382;2024-01-30T08:11:46;-1.10;99.90
28520;DHT22;15732;48.534;20.382;2024-01-30T08:14:13;-1.00;99.90
28520;DHT22;15732;48.534;20.382;2024-01-30T08:16:40;-1.00;99.90
28520;DHT22;15732;48.534;20.382;2024-01-30T08:19:11;-0.90;99.90
28520;DHT22;15732;48.534;20.382;2024-01-30T08:21:39;-0.90;99.90
28520;DHT22;15732;48.534;20.382;2024-01-30T08:24:08;-0.80;99.90
28520;DHT22;15732;48.534;20.382;2024-01-30T08:26:34;-0.80;99.90
28520;DHT22;15732;48.534;20.382;2024-01-30T08:29:05;-0.70;99.90
28520;DHT22;15732;48.534;20.382;2024-01-30T08:31:33;-0.60;99.90
28520;DHT22;15732;48.534;20.382;2024-01-30T08:34:00;-0.60;99.90
28520;DHT22;15732;48.534;20.382;2024-01-30T08:36:27;-0.50;99.90
28520;DHT22;15732;48.534;20.382;2024-01-30T08:38:54;-0.50;99.90
28520;DHT22;15732;48.534;20.382;2024-01-30T08:41:26;-0.40;99.90
28520;DHT22;15732;48.534;20.382;2024-01-30T08:43:52;-0.40;99.90
28520;DHT22;15732;48.534;20.382;2024-01-30T08:46:20;-0.30;99.90
28520;DHT22;15732;48.534;20.382;2024-01-30T08:48:47;-0.30;99.90
28520;DHT22;15732;48.534;20.382;2024-01-30T08:51:14;-0.20;99.90
28520;DHT22;15732;48.534;20.382;2024-01-30T08:53:42;-0.20;99.90
28520;DHT22;15732;48.534;20.382;2024-01-30T08:56:09;-0.20;99.90
28520;DHT22;15732;48.534;20.382;2024-01-30T08:58:37;-0.10;99.90
28520;DHT22;15732;48.534;20.382;2024-01-30T09:01:08;0.00;99.90
28520;DHT22;15732;48.534;20.382;2024-01-30T09:03:35;0.20;99.90
28520;DHT22;15732;48.534;20.382;2024-01-30T09:06:09;0.30;99.90
28520;DHT22;15732;48.534;20.382;2024-01-30T09:08:36;0.50;99.90
28520;DHT22;15732;48.534;20.382;2024-01-30T09:11:11;0.60;99.90
28520;DHT22;15732;48.534;20.382;2024-01-30T09:13:42;0.70;99.90
28520;DHT22;15732;48.534;20.382;2024-01-30T09:16:13;0.90;99.90
28520;DHT22;15732;48.534;20.382;2024-01-30T09:18:42;1.00;99.90
28520;DHT22;15732;48.534;20.382;2024-01-30T09:21:12;1.10;99.90
28520;DHT22;15732;48.534;20.382;2024-01-30T09:23:40;1.20;99.90
28520;DHT22;15732;48.534;20.382;2024-01-30T09:26:11;1.30;99.90
28520;DHT22;15732;48.534;20.382;2024-01-30T09:28:39;1.40;99.90
28520;DHT22;15732;48.534;20.382;2024-01-30T09:31:12;1.40;99.90
28520;DHT22;15732;48.534;20.382;2024-01-30T09:33:42;1.50;99.90
28520;DHT22;15732;48.534;20.382;2024-01-30T09:36:16;1.50;99.90
28520;DHT22;15732;48.534;20.382;2024-01-30T09:38:49;1.60;99.90
28520;DHT22;15732;48.534;20.382;2024-01-30T09:41:17;1.60;99.90
28520;DHT22;15732;48.534;20.382;2024-01-30T09:43:48;1.60;99.90
28520;DHT22;15732;48.534;20.382;2024-01-30T09:46:21;1.60;99.90
28520;DHT22;15732;48.534;20.382;2024-01-30T09:48:49;1.70;99.90
28520;DHT22;15732;48.534;20.382;2024-01-30T09:51:17;1.70;99.90
28520;DHT22;15732;48.534;20.382;2024-01-30T09:53:48;1.70;99.90
28520;DHT22;15732;48.534;20.382;2024-01-30T09:56:20;1.80;99.90
28520;DHT22;15732;48.534;20.382;2024-01-30T09:58:47;1.80;99.90
28520;DHT22;15732;48.534;20.382;2024-01-30T10:01:16;1.80;99.90
28520;DHT22;15732;48.534;20.382;2024-01-30T10:03:45;1.90;99.90
28520;DHT22;15732;48.534;20.382;2024-01-30T10:06:13;1.90;99.90
28520;DHT22;15732;48.534;20.382;2024-01-30T10:08:42;2.00;99.90
28520;DHT22;15732;48.534;20.382;2024-01-30T10:11:09;2.00;99.90
28520;DHT22;15732;48.534;20.382;2024-01-30T10:13:39;2.10;99.90
28520;DHT22;15732;48.534;20.382;2024-01-30T10:16:06;2.10;99.90
28520;DHT22;15732;48.534;20.382;2024-01-30T10:18:37;2.20;99.90
28520;DHT22;15732;48.534;20.382;2024-01-30T10:21:08;2.20;99.90
28520;DHT22;15732;48.534;20.382;2024-01-30T10:23:36;2.30;99.90
28520;DHT22;15732;48.534;20.382;2024-01-30T10:26:04;2.30;99.90
28520;DHT22;15732;48.534;20.382;2024-01-30T10:28:31;2.40;99.90
28520;DHT22;15732;48.534;20.382;2024-01-30T10:30:59;2.40;99.90
28520;DHT22;15732;48.534;20.382;2024-01-30T10:33:31;2.50;99.90
28520;DHT22;15732;48.534;20.382;2024-01-30T10:36:02;2.50;99.90
28520;DHT22;15732;48.534;20.382;2024-01-30T10:38:30;2.50;99.90
28520;DHT22;15732;48.534;20.382;2024-01-30T10:41:01;2.60;99.90
28520;DHT22;15732;48.534;20.382;2024-01-30T10:43:36;2.60;99.90
28520;DHT22;15732;48.534;20.382;2024-01-30T10:46:30;2.70;99.90
28520;DHT22;15732;48.534;20.382;2024-01-30T10:49:04;2.70;99.90
28520;DHT22;15732;48.534;20.382;2024-01-30T10:51:31;2.80;99.90
28520;DHT22;15732;48.534;20.382;2024-01-30T10:54:03;2.80;99.90
28520;DHT22;15732;48.534;20.382;2024-01-30T10:56:35;2.90;99.90
28520;DHT22;15732;48.534;20.382;2024-01-30T10:59:07;2.90;99.90
28520;DHT22;15732;48.534;20.382;2024-01-30T11:01:35;3.00;99.90
28520;DHT22;15732;48.534;20.382;2024-01-30T11:04:03;3.10;99.90
28520;DHT22;15732;48.534;20.382;2024-01-30T11:06:41;3.10;99.90
28520;DHT22;15732;48.534;20.382;2024-01-30T11:09:11;3.20;99.90
28520;DHT22;15732;48.534;20.382;2024-01-30T11:12:11;3.20;99.90
28520;DHT22;15732;48.534;20.382;2024-01-30T11:14:38;3.30;99.90
28520;DHT22;15732;48.534;20.382;2024-01-30T11:17:10;3.30;99.90
28520;DHT22;15732;48.534;20.382;2024-01-30T11:19:41;3.40;99.90
28520;DHT22;15732;48.534;20.382;2024-01-30T11:22:12;3.40;99.90
28520;DHT22;15732;48.534;20.382;2024-01-30T11:24:43;3.50;99.90
28520;DHT22;15732;48.534;20.382;2024-01-30T11:27:15;3.50;99.90
28520;DHT22;15732;48.534;20.382;2024-01-30T11:29:50;3.50;99.90
28520;DHT22;15732;48.534;20.382;2024-01-30T11:32:22;3.50;99.90
28520;DHT22;15732;48.534;20.382;2024-01-30T11:34:54;3.60;99.90
28520;DHT22;15732;48.534;20.382;2024-01-30T11:37:25;3.60;99.90
28520;DHT22;15732;48.534;20.382;2024-01-30T11:39:55;3.60;99.90
28520;DHT22;15732;48.534;20.382;2024-01-30T11:42:24;3.70;99.90
28520;DHT22;15732;48.534;20.382;2024-01-30T11:44:54;3.70;99.90
28520;DHT22;15732;48.534;20.382;2024-01-30T11:47:23;3.70;99.90
28520;DHT22;15732;48.534;20.382;2024-01-30T11:49:50;3.70;99.90
28520;DHT22;15732;48.534;20.382;2024-01-30T11:52:17;3.80;99.90
28520;DHT22;15732;48.534;20.382;2024-01-30T11:54:48;3.80;99.90
28520;DHT22;15732;48.534;20.382;2024-01-30T11:57:20;3.70;99.90
28520;DHT22;15732;48.534;20.382;2024-01-30T11:59:47;3.70;99.90
28520;DHT22;15732;48.534;20.382;2024-01-30T12:02:18;3.60;99.90
28520;DHT22;15732;48.534;20.382;2024-01-30T12:04:46;3.60;99.90
28520;DHT22;15732;48.534;20.382;2024-01-30T12:07:13;3.50;99.90
28520;DHT22;15732;48.534;20.382;2024-01-30T12:09:42;3.50;99.90
28520;DHT22;15732;48.534;20.382;2024-01-30T12:12:18;3.50;99.90
28520;DHT22;15732;48.534;20.382;2024-01-30T12:14:45;3.40;99.90
28520;DHT22;15732;48.534;20.382;2024-01-30T12:17:32;3.40;99.90
28520;DHT22;15732;48.534;20.382;2024-01-30T12:20:19;3.40;99.90
28520;DHT22;15732;48.534;20.382;2024-01-30T12:22:50;3.40;99.90
28520;DHT22;15732;48.534;20.382;2024-01-30T12:25:23;3.40;99.90
28520;DHT22;15732;48.534;20.382;2024-01-30T12:27:50;3.40;99.90
28520;DHT22;15732;48.534;20.382;2024-01-30T12:30:22;3.40;99.90
28520;DHT22;15732;48.534;20.382;2024-01-30T12:32:50;3.40;99.90
28520;DHT22;15732;48.534;20.382;2024-01-30T12:35:21;3.40;99.90
28520;DHT22;15732;48.534;20.382;2024-01-30T12:37:49;3.40;99.90
28520;DHT22;15732;48.534;20.382;2024-01-30T12:40:20;3.40;99.90
28520;DHT22;15732;48.534;20.382;2024-01-30T12:42:53;3.40;99.90
28520;DHT22;15732;48.534;20.382;2024-01-30T12:45:25;3.40;99.90
28520;DHT22;15732;48.534;20.382;2024-01-30T12:47:56;3.40;99.90
28520;DHT22;15732;48.534;20.382;2024-01-30T12:50:24;3.40;99.90
28520;DHT22;15732;48.534;20.382;2024-01-30T12:52:56;3.40;99.90
28520;DHT22;15732;48.534;20.382;2024-01-30T12:55:24;3.40;99.90
28520;DHT22;15732;48.534;20.382;2024-01-30T12:57:51;3.40;99.90
28520;DHT22;15732;48.534;20.382;2024-01-30T13:00:22;3.40;99.90
28520;DHT22;15732;48.534;20.382;2024-01-30T13:02:49;3.40;99.90
28520;DHT22;15732;48.534;20.382;2024-01-30T13:05:20;3.40;99.90
28520;DHT22;15732;48.534;20.382;2024-01-30T13:07:51;3.40;99.90
28520;DHT22;15732;48.534;20.382;2024-01-30T13:10:23;3.40;99.90
28520;DHT22;15732;48.534;20.382;2024-01-30T13:12:55;3.50;99.90
28520;DHT22;15732;48.534;20.382;2024-01-30T13:15:22;3.50;99.90
28520;DHT22;15732;48.534;20.382;2024-01-30T13:17:52;3.50;99.90
28520;DHT22;15732;48.534;20.382;2024-01-30T13:20:23;3.50;99.90
28520;DHT22;15732;48.534;20.382;2024-01-30T13:22:50;3.50;99.90
28520;DHT22;15732;48.534;20.382;2024-01-30T13:25:22;3.50;99.90
28520;DHT22;15732;48.534;20.382;2024-01-30T13:27:53;3.50;99.90
28520;DHT22;15732;48.534;20.382;2024-01-30T13:30:24;3.50;99.90
28520;DHT22;15732;48.534;20.382;2024-01-30T13:32:55;3.60;99.90
28520;DHT22;15732;48.534;20.382;2024-01-30T13:35:28;3.60;99.90
28520;DHT22;15732;48.534;20.382;2024-01-30T13:37:59;3.60;99.90
28520;DHT22;15732;48.534;20.382;2024-01-30T13:40:30;3.60;99.90
28520;DHT22;15732;48.534;20.382;2024-01-30T13:42:57;3.60;99.90
28520;DHT22;15732;48.534;20.382;2024-01-30T13:45:24;3.60;99.90
28520;DHT22;15732;48.534;20.382;2024-01-30T13:47:55;3.70;99.90
28520;DHT22;15732;48.534;20.382;2024-01-30T13:50:26;3.70;99.90
28520;DHT22;15732;48.534;20.382;2024-01-30T13:52:58;3.70;99.90
28520;DHT22;15732;48.534;20.382;2024-01-30T13:55:29;3.70;99.90
28520;DHT22;15732;48.534;20.382;2024-01-30T13:58:01;3.70;99.90
28520;DHT22;15732;48.534;20.382;2024-01-30T14:00:30;3.70;99.90
28520;DHT22;15732;48.534;20.382;2024-01-30T14:02:57;3.70;99.90
28520;DHT22;15732;48.534;20.382;2024-01-30T14:05:28;3.70;99.90
28520;DHT22;15732;48.534;20.382;2024-01-30T14:07:55;3.70;99.90
28520;DHT22;15732;48.534;20.382;2024-01-30T14:10:23;3.70;99.90
28520;DHT22;15732;48.534;20.382;2024-01-30T14:12:54;3.70;99.90
28520;DHT22;15732;48.534;20.382;2024-01-30T14:15:26;3.70;99.90
28520;DHT22;15732;48.534;20.382;2024-01-30T14:17:57;3.70;99.90
28520;DHT22;15732;48.534;20.382;2024-01-30T14:20:24;3.70;99.90
28520;DHT22;15732;48.534;20.382;2024-01-30T14:22:51;3.70;99.90
28520;DHT22;15732;48.534;20.382;2024-01-30T14:25:24;3.70;99.90
28520;DHT22;15732;48.534;20.382;2024-01-30T14:27:55;3.70;99.90
28520;DHT22;15732;48.534;20.382;2024-01-30T14:30:23;3.60;99.90
28520;DHT22;15732;48.534;20.382;2024-01-30T14:32:50;3.60;99.90
28520;DHT22;15732;48.534;20.382;2024-01-30T14:35:21;3.60;99.90
28520;DHT22;15732;48.534;20.382;2024-01-30T14:37:48;3.60;99.90
28520;DHT22;15732;48.534;20.382;2024-01-30T14:40:19;3.60;99.90
28520;DHT22;15732;48.534;20.382;2024-01-30T14:42:47;3.60;99.90
28520;DHT22;15732;48.534;20.382;2024-01-30T14:45:15;3.60;99.90
28520;DHT22;15732;48.534;20.382;2024-01-30T14:47:42;3.60;99.90
28520;DHT22;15732;48.534;20.382;2024-01-30T14:50:14;3.60;99.90
28520;DHT22;15732;48.534;20.382;2024-01-30T14:52:43;3.60;99.90
28520;DHT22;15732;48.534;20.382;2024-01-30T14:55:14;3.60;99.90
28520;DHT22;15732;48.534;20.382;2024-01-30T14:57:45;3.50;99.90
28520;DHT22;15732;48.534;20.382;2024-01-30T15:00:18;3.50;99.90
28520;DHT22;15732;48.534;20.382;2024-01-30T15:02:45;3.50;99.90
28520;DHT22;15732;48.534;20.382;2024-01-30T15:05:16;3.50;99.90
28520;DHT22;15732;48.534;20.382;2024-01-30T15:07:47;3.40;99.90
28520;DHT22;15732;48.534;20.382;2024-01-30T15:10:18;3.40;99.90
28520;DHT22;15732;48.534;20.382;2024-01-30T15:12:50;3.30;99.90
28520;DHT22;15732;48.534;20.382;2024-01-30T15:15:16;3.30;99.90
28520;DHT22;15732;48.534;20.382;2024-01-30T15:17:44;3.30;99.90
28520;DHT22;15732;48.534;20.382;2024-01-30T15:20:11;3.30;99.90
28520;DHT22;15732;48.534;20.382;2024-01-30T15:22:42;3.20;99.90
28520;DHT22;15732;48.534;20.382;2024-01-30T15:25:11;3.20;99.90
28520;DHT22;15732;48.534;20.382;2024-01-30T15:27:38;3.10;99.90
28520;DHT22;15732;48.534;20.382;2024-01-30T15:30:12;3.00;99.90
28520;DHT22;15732;48.534;20.382;2024-01-30T15:32:40;2.90;99.90
28520;DHT22;15732;48.534;20.382;2024-01-30T15:35:08;2.90;99.90